Time;durP1;ratioP1;P1;durP2;ratioP2;P2;SDS_P1;SDS_P2;PMS_P1;PMS_P2;Temp;Humidity;BMP_temperature;BMP_pressure;BME280_temperature;BME280_humidity;BME280_pressure;Samples;Min_cycle;Max_cycle;Signal;HPM_P1;HPM_P2
2021/03/31 00:01:47;;;;;;;29.25;12.52;;;12.10;49.00;;;;;;4957040;28;20046;-63
2021/03/31 00:04:15;;;;;;;21.35;12.52;;;12.10;49.20;;;;;;4968153;28;20038;-63
2021/03/31 00:06:40;;;;;;;26.42;13.95;;;12.10;49.40;;;;;;4944908;28;20604;-63
2021/03/31 00:09:06;;;;;;;22.77;13.77;;;12.10;49.60;;;;;;4961587;28;20034;-63
2021/03/31 00:11:34;;;;;;;23.67;13.15;;;12.10;49.80;;;;;;4954971;28;20046;-63
2021/03/31 00:14:02;;;;;;;23.77;13.00;;;12.10;49.80;;;;;;4963399;28;20125;-62
2021/03/31 00:16:27;;;;;;;24.38;13.43;;;12.10;49.70;;;;;;4974161;28;20137;-62
2021/03/31 00:18:53;;;;;;;19.63;12.13;;;12.10;49.70;;;;;;4963047;28;20042;-63
2021/03/31 00:21:18;;;;;;;22.00;12.80;;;12.00;49.70;;;;;;4948334;28;20053;-63
2021/03/31 00:23:44;;;;;;;26.75;14.10;;;11.90;49.70;;;;;;4927341;28;20050;-62
2021/03/31 00:26:10;;;;;;;25.65;14.27;;;11.80;49.80;;;;;;4945725;28;20043;-63
2021/03/31 00:28:36;;;;;;;21.30;13.45;;;11.80;50.10;;;;;;4959453;28;20046;-63
2021/03/31 00:31:04;;;;;;;28.58;13.88;;;11.80;50.30;;;;;;4962822;28;20037;-63
2021/03/31 00:33:29;;;;;;;26.80;14.48;;;11.80;50.60;;;;;;4956615;28;23782;-63
2021/03/31 00:35:55;;;;;;;27.98;13.77;;;11.80;50.70;;;;;;4957653;28;20121;-63
2021/03/31 00:38:21;;;;;;;24.42;15.70;;;11.80;50.70;;;;;;4967464;28;20042;-63
2021/03/31 00:40:49;;;;;;;24.38;12.90;;;11.80;50.80;;;;;;4961346;28;20086;-63
2021/03/31 00:43:15;;;;;;;23.40;14.00;;;11.80;50.80;;;;;;4958981;28;20062;-63
2021/03/31 00:45:42;;;;;;;22.50;13.82;;;11.80;50.80;;;;;;4956927;28;20174;-63
2021/03/31 00:48:13;;;;;;;26.48;15.48;;;11.80;50.80;;;;;;4963670;28;20065;-63
2021/03/31 00:50:40;;;;;;;27.70;15.30;;;11.80;50.90;;;;;;4960506;28;20044;-63
2021/03/31 00:53:07;;;;;;;23.25;14.13;;;11.70;50.90;;;;;;4966506;28;20039;-64
2021/03/31 00:55:33;;;;;;;24.13;13.25;;;11.70;50.80;;;;;;4958140;28;20046;-63
2021/03/31 00:57:59;;;;;;;27.85;15.20;;;11.70;50.70;;;;;;4971937;28;20042;-63
2021/03/31 01:00:25;;;;;;;24.67;15.23;;;11.60;50.80;;;;;;4949002;28;20035;-63
2021/03/31 01:02:51;;;;;;;33.50;16.17;;;11.50;51.00;;;;;;4940267;28;20038;-63
2021/03/31 01:05:25;;;;;;;27.55;15.70;;;11.50;51.20;;;;;;4957962;28;20070;-63
2021/03/31 01:07:52;;;;;;;26.10;15.02;;;11.50;51.20;;;;;;4937204;28;20113;-62
2021/03/31 01:10:24;;;;;;;27.83;15.68;;;11.50;51.20;;;;;;4956115;28;20035;-63
2021/03/31 01:13:24;;;;;;;22.40;14.18;;;11.40;51.20;;;;;;4954446;28;20109;-62
2021/03/31 01:16:18;;;;;;;27.17;15.30;;;11.40;51.10;;;;;;4946366;28;20042;-63
2021/03/31 01:19:19;;;;;;;26.65;15.15;;;11.30;51.10;;;;;;4958573;28;20050;-63
2021/03/31 01:22:15;;;;;;;29.90;15.50;;;11.20;51.10;;;;;;4954864;28;20761;-62
2021/03/31 01:24:59;;;;;;;29.10;16.15;;;11.10;51.20;;;;;;4950659;28;20043;-64
2021/03/31 01:27:46;;;;;;;35.67;16.42;;;11.00;51.20;;;;;;4958861;28;20026;-63
2021/03/31 01:30:27;;;;;;;33.05;15.50;;;11.00;51.40;;;;;;4960674;28;20167;-63
2021/03/31 01:33:07;;;;;;;30.15;17.05;;;11.00;51.60;;;;;;4966454;28;20031;-63
2021/03/31 01:35:35;;;;;;;35.55;16.70;;;10.90;51.70;;;;;;4950604;28;20048;-63
2021/03/31 01:38:06;;;;;;;32.97;17.92;;;10.90;51.80;;;;;;4964068;28;20035;-62
2021/03/31 01:40:38;;;;;;;30.52;16.13;;;10.90;51.90;;;;;;4961777;28;20497;-62
2021/03/31 01:43:13;;;;;;;29.83;16.13;;;10.90;52.00;;;;;;4966159;28;20092;-63
2021/03/31 01:45:40;;;;;;;33.75;17.85;;;10.90;52.00;;;;;;4954049;28;20042;-62
2021/03/31 01:48:12;;;;;;;33.67;17.20;;;10.90;52.10;;;;;;4957899;28;20093;-62
2021/03/31 01:50:39;;;;;;;28.55;16.77;;;10.80;52.10;;;;;;4951518;28;20114;-62
2021/03/31 01:53:12;;;;;;;27.73;16.45;;;10.80;52.20;;;;;;4970571;28;20555;-63
2021/03/31 01:55:39;;;;;;;32.10;16.42;;;10.80;52.40;;;;;;4938758;28;20106;-63
2021/03/31 01:58:07;;;;;;;35.13;17.88;;;10.80;52.40;;;;;;4961155;28;20038;-63
2021/03/31 02:00:33;;;;;;;33.47;17.83;;;10.80;52.40;;;;;;4951894;28;20042;-63
2021/03/31 02:03:00;;;;;;;31.98;16.05;;;10.80;52.50;;;;;;4956854;28;20042;-63
2021/03/31 02:05:27;;;;;;;28.73;16.00;;;10.70;52.50;;;;;;4956993;28;20027;-64
2021/03/31 02:07:56;;;;;;;32.35;17.13;;;10.70;52.60;;;;;;4957890;28;20045;-65
2021/03/31 02:10:24;;;;;;;34.92;18.65;;;10.70;52.80;;;;;;4950185;28;20035;-64
2021/03/31 02:12:51;;;;;;;30.02;17.38;;;10.70;53.00;;;;;;4956273;28;20524;-62
2021/03/31 02:15:23;;;;;;;33.50;18.83;;;10.70;53.20;;;;;;4959051;28;20043;-63
2021/03/31 02:17:52;;;;;;;40.72;18.60;;;10.70;53.30;;;;;;4964765;28;20419;-62
2021/03/31 02:20:21;;;;;;;40.22;18.73;;;10.70;53.40;;;;;;4963789;28;20046;-62
2021/03/31 02:22:51;;;;;;;34.10;18.88;;;10.70;53.60;;;;;;4961530;28;20049;-63
2021/03/31 02:25:20;;;;;;;31.75;17.45;;;10.70;53.60;;;;;;4955476;28;20042;-63
2021/03/31 02:27:46;;;;;;;32.03;17.65;;;10.70;53.50;;;;;;4953839;28;20042;-63
2021/03/31 02:30:16;;;;;;;34.03;18.75;;;10.70;53.50;;;;;;4954178;28;20650;-63
2021/03/31 02:32:45;;;;;;;34.17;20.08;;;10.70;53.70;;;;;;4954456;28;20729;-63
2021/03/31 02:35:16;;;;;;;39.45;19.35;;;10.70;53.90;;;;;;4952173;28;20042;-62
2021/03/31 02:37:43;;;;;;;38.67;18.25;;;10.60;54.00;;;;;;4945272;28;20034;-63
2021/03/31 02:40:12;;;;;;;37.70;20.35;;;10.60;54.00;;;;;;4958318;28;20415;-63
2021/03/31 02:42:43;;;;;;;35.53;20.17;;;10.70;54.00;;;;;;4958205;28;20531;-63
2021/03/31 02:45:13;;;;;;;32.55;19.35;;;10.70;54.10;;;;;;4960070;28;20046;-63
2021/03/31 02:47:42;;;;;;;38.65;20.65;;;10.70;54.20;;;;;;4963321;28;20679;-62
2021/03/31 02:50:11;;;;;;;39.35;20.75;;;10.70;54.30;;;;;;4960572;28;20058;-62
2021/03/31 02:52:38;;;;;;;39.83;20.92;;;10.70;54.30;;;;;;4951571;28;20040;-63
2021/03/31 02:55:07;;;;;;;36.53;19.40;;;10.70;54.40;;;;;;4956344;28;20467;-63
2021/03/31 02:57:35;;;;;;;39.83;20.15;;;10.70;54.40;;;;;;4950444;28;20406;-64
2021/03/31 03:00:08;;;;;;;43.75;20.70;;;10.70;54.30;;;;;;4958642;28;20039;-64
2021/03/31 03:02:36;;;;;;;37.25;20.38;;;10.70;54.40;;;;;;4952818;28;20327;-61
2021/03/31 03:05:03;;;;;;;33.60;19.45;;;10.70;54.30;;;;;;4945649;28;20731;-63
2021/03/31 03:07:31;;;;;;;38.80;20.27;;;10.70;54.20;;;;;;4938741;28;20035;-63
2021/03/31 03:09:59;;;;;;;36.90;20.85;;;10.70;54.10;;;;;;4956198;28;20160;-63
2021/03/31 03:12:24;;;;;;;41.42;20.27;;;10.70;54.10;;;;;;4956588;28;20093;-63
2021/03/31 03:14:52;;;;;;;40.70;21.70;;;10.60;54.10;;;;;;4957290;28;20092;-63
2021/03/31 03:17:19;;;;;;;35.58;20.98;;;10.60;54.20;;;;;;4960535;28;20054;-63
2021/03/31 03:19:47;;;;;;;36.38;19.27;;;10.60;54.20;;;;;;4959883;28;20116;-63
2021/03/31 03:22:13;;;;;;;39.28;20.80;;;10.60;54.10;;;;;;4949572;28;20563;-63
2021/03/31 03:24:43;;;;;;;41.38;21.77;;;10.60;54.00;;;;;;4955688;28;20109;-63
2021/03/31 03:27:15;;;;;;;43.45;21.40;;;10.50;54.00;;;;;;4951851;28;20035;-63
2021/03/31 03:29:49;;;;;;;35.20;19.48;;;10.50;54.30;;;;;;4953371;28;20219;-63
2021/03/31 03:32:15;;;;;;;35.90;20.33;;;10.40;54.10;;;;;;4956916;28;20077;-64
2021/03/31 03:34:43;;;;;;;37.38;20.75;;;10.40;54.30;;;;;;4944308;28;20145;-63
2021/03/31 03:37:11;;;;;;;36.90;20.92;;;10.40;54.40;;;;;;4941952;28;20058;-63
2021/03/31 03:39:42;;;;;;;36.55;19.33;;;10.40;54.40;;;;;;4947675;28;20042;-63
2021/03/31 03:42:08;;;;;;;37.88;20.20;;;10.40;54.30;;;;;;4945481;28;20088;-63
2021/03/31 03:44:34;;;;;;;37.58;20.05;;;10.40;54.30;;;;;;4965768;28;20030;-64
2021/03/31 03:46:59;;;;;;;41.08;21.83;;;10.40;54.40;;;;;;4946013;28;20724;-64
2021/03/31 03:49:25;;;;;;;36.75;20.00;;;10.30;54.30;;;;;;4957903;28;20049;-63
2021/03/31 03:51:51;;;;;;;34.83;20.40;;;10.30;54.30;;;;;;4957475;28;20065;-63
2021/03/31 03:54:17;;;;;;;43.72;22.20;;;10.30;54.30;;;;;;4956970;28;20039;-63
2021/03/31 03:56:47;;;;;;;43.78;21.75;;;10.20;54.40;;;;;;4958153;28;20516;-63
2021/03/31 03:59:21;;;;;;;44.25;20.95;;;10.20;54.50;;;;;;4960889;28;20045;-63
2021/03/31 04:01:48;;;;;;;39.63;21.05;;;10.20;54.50;;;;;;4957275;28;20035;-63
2021/03/31 04:04:13;;;;;;;44.08;22.95;;;10.10;54.60;;;;;;4967820;28;20039;-62
2021/03/31 04:06:39;;;;;;;47.83;22.60;;;10.10;54.80;;;;;;4951200;28;20046;-63
2021/03/31 04:09:05;;;;;;;43.83;23.63;;;10.10;55.00;;;;;;4956639;28;20046;-62
2021/03/31 04:11:33;;;;;;;43.38;22.17;;;10.10;55.10;;;;;;4958031;28;20043;-62
2021/03/31 04:14:01;;;;;;;39.35;21.92;;;10.10;55.20;;;;;;4956790;28;20042;-63
2021/03/31 04:16:29;;;;;;;43.40;21.92;;;10.10;55.20;;;;;;4952244;28;20040;-62
2021/03/31 04:19:01;;;;;;;35.60;19.75;;;10.10;55.10;;;;;;4972565;23;20038;-62
2021/03/31 04:21:29;;;;;;;44.33;18.77;;;10.10;54.90;;;;;;4961079;28;20034;-60
2021/03/31 04:24:00;;;;;;;35.80;20.02;;;10.10;54.90;;;;;;4952344;28;20073;-60
2021/03/31 04:26:28;;;;;;;41.55;21.65;;;10.00;54.90;;;;;;4972865;28;20057;-61
2021/03/31 04:28:57;;;;;;;39.75;21.38;;;10.00;54.80;;;;;;4953351;28;20050;-60
2021/03/31 04:31:26;;;;;;;38.05;21.23;;;9.90;54.80;;;;;;4955436;28;20049;-60
2021/03/31 04:33:53;;;;;;;44.33;21.58;;;9.90;54.90;;;;;;4964542;28;20046;-60
2021/03/31 04:36:18;;;;;;;43.67;21.73;;;9.90;54.90;;;;;;4955721;28;20093;-60
2021/03/31 04:38:45;;;;;;;45.70;23.33;;;9.80;55.00;;;;;;4966300;28;20161;-61
2021/03/31 04:41:11;;;;;;;44.17;23.13;;;9.80;55.20;;;;;;4966340;28;20042;-60
2021/03/31 04:43:36;;;;;;;44.70;22.08;;;9.80;55.30;;;;;;4966384;28;20095;-60
2021/03/31 04:46:04;;;;;;;42.05;22.08;;;9.80;55.40;;;;;;4947267;28;20129;-60
2021/03/31 04:48:30;;;;;;;47.45;23.55;;;9.80;55.40;;;;;;4958224;28;20694;-59
2021/03/31 04:50:58;;;;;;;43.97;21.95;;;9.80;55.50;;;;;;4960817;28;20111;-60
2021/03/31 04:53:27;;;;;;;42.83;22.15;;;9.80;55.50;;;;;;4959275;28;20073;-60
2021/03/31 04:55:52;;;;;;;41.00;20.88;;;9.70;55.50;;;;;;4971404;28;20124;-60
2021/03/31 04:58:18;;;;;;;41.90;22.45;;;9.70;55.50;;;;;;4968061;28;20496;-60
2021/03/31 05:00:44;;;;;;;46.28;23.83;;;9.70;55.60;;;;;;4960719;28;20144;-60
2021/03/31 05:03:12;;;;;;;51.45;25.25;;;9.70;55.70;;;;;;4957564;28;20587;-60
2021/03/31 05:05:38;;;;;;;57.10;26.05;;;9.70;55.80;;;;;;4950246;28;20536;-60
2021/03/31 05:08:04;;;;;;;50.83;24.25;;;9.70;56.70;;;;;;4951519;28;20027;-60
2021/03/31 05:10:29;;;;;;;53.47;24.40;;;9.70;56.20;;;;;;4967298;28;20039;-60
2021/03/31 05:12:55;;;;;;;58.50;25.73;;;9.70;56.20;;;;;;4960423;28;20366;-60
2021/03/31 05:15:23;;;;;;;45.50;24.13;;;9.70;56.30;;;;;;4947490;28;21959;-61
2021/03/31 05:17:49;;;;;;;49.33;24.50;;;9.80;56.50;;;;;;4959811;28;20141;-61
2021/03/31 05:20:14;;;;;;;54.42;25.55;;;9.80;56.50;;;;;;4960440;28;20046;-60
2021/03/31 05:22:40;;;;;;;55.88;23.75;;;9.80;56.40;;;;;;4970029;28;20046;-61
2021/03/31 05:25:11;;;;;;;54.08;26.35;;;9.90;56.50;;;;;;4954399;28;20061;-61
2021/03/31 05:27:39;;;;;;;50.30;25.38;;;9.90;56.50;;;;;;4959317;28;20038;-61
2021/03/31 05:30:10;;;;;;;47.88;23.08;;;10.00;56.40;;;;;;4964943;28;20030;-61
2021/03/31 05:32:36;;;;;;;48.63;23.02;;;10.00;56.30;;;;;;4956961;28;20178;-60
2021/03/31 05:35:03;;;;;;;46.88;22.70;;;10.00;56.10;;;;;;4954882;28;20457;-60
2021/03/31 05:37:29;;;;;;;46.13;24.20;;;10.00;56.10;;;;;;4960519;28;20038;-60
2021/03/31 05:39:57;;;;;;;55.58;24.85;;;10.00;56.20;;;;;;4958867;28;20035;-61
2021/03/31 05:42:22;;;;;;;50.60;25.15;;;10.00;56.20;;;;;;4956918;28;20030;-60
2021/03/31 05:44:49;;;;;;;53.67;24.23;;;10.00;56.20;;;;;;4963421;28;20648;-60
2021/03/31 05:47:34;;;;;;;54.85;25.63;;;10.00;56.40;;;;;;4957613;28;20729;-60
2021/03/31 05:50:01;;;;;;;51.55;24.83;;;10.10;56.40;;;;;;4960536;28;20038;-60
2021/03/31 05:52:26;;;;;;;49.50;24.67;;;10.10;56.40;;;;;;4961139;28;20030;-60
2021/03/31 05:54:52;;;;;;;47.60;25.67;;;10.20;56.50;;;;;;4955461;28;20069;-60
2021/03/31 05:57:18;;;;;;;48.22;23.70;;;10.20;56.50;;;;;;4956846;28;20508;-61
2021/03/31 05:59:46;;;;;;;52.33;24.23;;;10.30;56.40;;;;;;4962118;28;20173;-61
2021/03/31 06:02:17;;;;;;;47.00;23.92;;;10.30;56.40;;;;;;4959511;28;20875;-61
2021/03/31 06:04:44;;;;;;;46.10;23.58;;;10.30;56.50;;;;;;4954902;28;20049;-61
2021/03/31 06:07:13;;;;;;;60.38;27.02;;;10.40;56.50;;;;;;4976746;28;20077;-61
2021/03/31 06:10:12;;;;;;;55.47;24.88;;;10.50;56.70;;;;;;4968871;28;20293;-60
2021/03/31 06:12:44;;;;;;;50.95;25.77;;;10.60;56.80;;;;;;4971484;28;20528;-61
2021/03/31 06:15:16;;;;;;;53.20;26.75;;;10.70;56.80;;;;;;4960734;28;20057;-60
2021/03/31 06:18:07;;;;;;;51.05;26.40;;;10.80;56.90;;;;;;4960726;28;20045;-61
2021/03/31 06:20:42;;;;;;;48.08;24.52;;;10.90;56.80;;;;;;4959458;28;20099;-61
2021/03/31 06:23:35;;;;;;;45.15;25.00;;;11.00;56.70;;;;;;4948708;28;20062;-61
2021/03/31 06:26:15;;;;;;;42.50;23.50;;;11.20;56.60;;;;;;4961567;28;20061;-61
2021/03/31 06:28:41;;;;;;;39.85;21.17;;;11.30;56.40;;;;;;4969963;28;20031;-61
2021/03/31 06:31:11;;;;;;;47.33;23.02;;;11.40;56.30;;;;;;4963372;28;20100;-61
2021/03/31 06:33:38;;;;;;;51.67;23.10;;;11.50;56.30;;;;;;4977373;28;20242;-61
2021/03/31 06:36:09;;;;;;;49.72;23.35;;;11.50;56.20;;;;;;4966487;28;20602;-60
2021/03/31 06:38:37;;;;;;;47.97;24.40;;;11.60;56.20;;;;;;4956586;28;20051;-61
2021/03/31 06:41:32;;;;;;;52.03;24.90;;;11.70;56.20;;;;;;4979743;28;20049;-61
2021/03/31 06:49:10;;;;;;;40.03;21.80;;;12.10;56.20;;;;;;4969826;28;20821;-61
2021/03/31 06:51:37;;;;;;;37.20;21.98;;;12.20;56.00;;;;;;4972731;28;20460;-62
2021/03/31 06:54:17;;;;;;;38.75;20.10;;;12.40;55.60;;;;;;4969154;28;20069;-61
2021/03/31 06:57:04;;;;;;;36.53;18.90;;;12.60;55.10;;;;;;4970131;28;20038;-63
2021/03/31 06:59:32;;;;;;;35.08;19.15;;;12.80;54.30;;;;;;4972067;28;20255;-62
2021/03/31 07:01:59;;;;;;;40.63;17.90;;;13.00;53.60;;;;;;4971324;28;20106;-64
2021/03/31 07:04:29;;;;;;;34.78;18.85;;;13.20;52.90;;;;;;4969804;28;20732;-63
2021/03/31 07:07:07;;;;;;;30.17;17.13;;;13.30;52.30;;;;;;4975417;28;20050;-63
2021/03/31 07:09:36;;;;;;;37.95;18.30;;;13.60;51.70;;;;;;4981254;28;20508;-63
2021/03/31 07:12:15;;;;;;;35.22;18.20;;;13.80;51.30;;;;;;4979988;28;20053;-63
2021/03/31 07:14:45;;;;;;;29.67;17.25;;;13.90;50.50;;;;;;4985213;28;20285;-63
2021/03/31 07:17:12;;;;;;;34.35;17.75;;;14.20;50.00;;;;;;4968629;28;20041;-63
2021/03/31 07:19:40;;;;;;;32.85;18.60;;;14.30;49.60;;;;;;4979635;28;20034;-63
2021/03/31 07:22:06;;;;;;;36.15;17.63;;;14.50;49.30;;;;;;4976591;28;20038;-63
2021/03/31 07:24:32;;;;;;;38.83;18.77;;;14.60;48.80;;;;;;4978892;28;20041;-63
2021/03/31 07:26:57;;;;;;;31.15;17.27;;;14.80;48.90;;;;;;4981348;28;20050;-63
2021/03/31 07:29:23;;;;;;;36.45;16.58;;;14.90;48.40;;;;;;4975172;28;20039;-63
2021/03/31 07:31:50;;;;;;;34.47;17.33;;;15.00;47.50;;;;;;4979286;28;20042;-63
2021/03/31 07:34:29;;;;;;;36.85;16.50;;;15.20;46.80;;;;;;4975151;28;20031;-63
2021/03/31 07:36:55;;;;;;;37.42;16.42;;;15.40;47.00;;;;;;4965966;28;20061;-61
2021/03/31 07:39:27;;;;;;;39.13;16.98;;;15.50;46.50;;;;;;4969533;28;20770;-62
2021/03/31 07:41:54;;;;;;;39.47;17.40;;;15.60;45.60;;;;;;4973988;28;20431;-61
2021/03/31 07:44:24;;;;;;;34.63;17.65;;;15.80;45.70;;;;;;4966382;28;20050;-61
2021/03/31 07:46:51;;;;;;;37.42;18.13;;;15.90;45.60;;;;;;4974613;28;20038;-61
2021/03/31 07:49:20;;;;;;;36.17;16.80;;;16.10;45.20;;;;;;4973277;28;20043;-61
2021/03/31 07:52:03;;;;;;;33.90;17.88;;;16.20;44.80;;;;;;4974830;28;20359;-61
2021/03/31 07:54:29;;;;;;;43.22;18.08;;;16.30;44.70;;;;;;4968450;28;20042;-61
2021/03/31 07:56:58;;;;;;;32.85;17.13;;;16.40;44.20;;;;;;4979503;28;20050;-62
2021/03/31 07:59:25;;;;;;;38.42;17.23;;;16.50;43.50;;;;;;4972964;28;20031;-61
2021/03/31 08:01:55;;;;;;;31.45;16.88;;;16.70;42.80;;;;;;4975565;28;20514;-61
2021/03/31 08:04:23;;;;;;;36.60;17.45;;;16.80;42.60;;;;;;4972108;28;20053;-61
2021/03/31 08:06:50;;;;;;;40.33;17.48;;;17.00;42.00;;;;;;4968760;28;20046;-62
2021/03/31 08:09:19;;;;;;;38.25;17.13;;;17.20;42.00;;;;;;4969579;28;20157;-62
2021/03/31 08:11:53;;;;;;;32.35;17.75;;;17.80;41.70;;;;;;4967914;28;20096;-62
2021/03/31 08:14:36;;;;;;;33.05;16.20;;;19.30;41.50;;;;;;4960591;28;20229;-61
2021/03/31 08:17:07;;;;;;;34.92;16.80;;;21.70;38.60;;;;;;4964748;28;20122;-62
2021/03/31 08:19:34;;;;;;;23.00;14.45;;;;;;;;;;4969493;28;20045;-62
2021/03/31 08:22:24;;;;;;;25.70;13.73;;;23.90;35.00;;;;;;4968659;28;20045;-62
2021/03/31 08:24:53;;;;;;;24.13;14.43;;;27.60;29.60;;;;;;4968597;28;20058;-62
2021/03/31 08:27:19;;;;;;;27.35;15.15;;;;;;;;;;4972947;28;20046;-62
2021/03/31 08:29:48;;;;;;;26.38;14.88;;;;;;;;;;4970842;28;20421;-62
2021/03/31 08:32:14;;;;;;;26.90;14.20;;;;;;;;;;4970420;28;20045;-62
2021/03/31 08:34:42;;;;;;;27.17;14.82;;;;;;;;;;4965933;28;20566;-62
2021/03/31 08:37:17;;;;;;;22.15;13.68;;;;;;;;;;4963594;28;20840;-62
2021/03/31 08:39:43;;;;;;;26.02;13.98;;;;;;;;;;4972001;28;20097;-62
2021/03/31 08:42:09;;;;;;;26.33;14.70;;;;;;;;;;4971166;28;20042;-63
2021/03/31 08:44:37;;;;;;;25.45;14.48;;;;;;;;;;4968239;28;20057;-62
2021/03/31 08:47:11;;;;;;;24.05;14.35;;;;;;;;;;4969168;28;20057;-62
2021/03/31 08:49:37;;;;;;;23.73;14.77;;;;;;;;;;4993067;28;20174;-62
2021/03/31 08:52:05;;;;;;;27.42;14.40;;;;;;;;;;4969447;28;20140;-62
2021/03/31 08:54:35;;;;;;;23.73;14.02;;;;;;;;;;4974724;28;20399;-62
2021/03/31 08:57:02;;;;;;;20.90;13.88;;;;;;;;;;4967488;28;20060;-63
2021/03/31 08:59:31;;;;;;;24.33;14.85;;;;;;;;;;4973985;28;20057;-63
2021/03/31 09:02:00;;;;;;;20.25;13.50;;;;;;;;;;4969113;28;20038;-62
2021/03/31 09:04:29;;;;;;;29.33;14.98;;;;;;;;;;4969919;28;20069;-62
2021/03/31 09:06:55;;;;;;;27.33;14.18;;;;;;;;;;4967871;28;20042;-62
2021/03/31 09:09:21;;;;;;;24.65;14.10;;;;;;;;;;4973223;28;20056;-63
2021/03/31 09:11:48;;;;;;;22.98;14.02;;;;;;;;;;4974550;28;20126;-63
2021/03/31 09:14:18;;;;;;;26.92;14.65;;;;;;;;;;4965678;28;20034;-62
2021/03/31 09:16:54;;;;;;;24.05;13.73;;;;;;;;;;4973163;28;20038;-62
2021/03/31 09:19:20;;;;;;;23.50;13.90;;;;;;;;;;4975204;28;20043;-62
2021/03/31 09:21:46;;;;;;;22.35;14.80;;;;;;;;;;4979059;28;20117;-63
2021/03/31 09:24:15;;;;;;;22.73;14.13;;;;;;;;;;4971562;28;20038;-63
2021/03/31 09:26:41;;;;;;;23.92;14.52;;;;;;;;;;4972666;28;20516;-63
2021/03/31 09:29:17;;;;;;;21.90;13.77;;;;;;;;;;4970200;28;20521;-63
2021/03/31 09:31:44;;;;;;;23.45;13.75;;;;;;;;;;4965592;28;23990;-63
2021/03/31 09:34:10;;;;;;;24.25;13.27;;;;;;;;;;4962676;28;20404;-63
2021/03/31 09:36:37;;;;;;;21.23;14.82;;;;;;;;;;4973190;28;20042;-63
2021/03/31 09:39:04;;;;;;;23.00;14.75;;;;;;;;;;4972053;28;20036;-63
2021/03/31 09:41:30;;;;;;;25.92;15.13;;;;;;;;;;4968851;28;20094;-62
2021/03/31 09:43:57;;;;;;;23.02;14.05;;;;;;;;;;4969020;28;20405;-63
2021/03/31 09:46:25;;;;;;;22.00;13.30;;;;;;;;;;4971291;28;20038;-63
2021/03/31 09:48:51;;;;;;;27.42;14.80;;;;;;;;;;4971874;28;20665;-63
2021/03/31 09:51:18;;;;;;;24.02;15.27;;;;;;;;;;4968853;28;20042;-63
2021/03/31 09:53:45;;;;;;;24.17;14.40;;;;;;;;;;4968341;28;20030;-63
2021/03/31 09:56:11;;;;;;;23.48;15.13;;;;;;;;;;4971193;28;20042;-63
2021/03/31 09:58:41;;;;;;;24.45;15.13;;;;;;;;;;4975866;28;20385;-63
2021/03/31 10:01:14;;;;;;;28.45;15.05;;;;;;;;;;4975647;28;20042;-63
2021/03/31 10:03:41;;;;;;;28.33;15.60;;;;;;;;;;4971406;28;20030;-63
2021/03/31 10:06:20;;;;;;;25.08;14.65;;;;;;;;;;4968301;28;20038;-63
2021/03/31 10:08:47;;;;;;;23.30;15.10;;;;;;;;;;4981869;28;20780;-63
2021/03/31 10:11:30;;;;;;;24.98;15.25;;;29.00;27.40;;;;;;4977549;28;20046;-64
2021/03/31 10:13:59;;;;;;;21.48;15.13;;;43.00;13.40;;;;;;4966299;28;20507;-63
2021/03/31 10:16:39;;;;;;;23.50;16.02;;;42.60;13.60;;;;;;4960638;28;20064;-63
2021/03/31 10:19:07;;;;;;;25.15;16.75;;;42.60;13.10;;;;;;4971821;28;20038;-63
2021/03/31 10:21:37;;;;;;;21.88;15.38;;;42.80;13.10;;;;;;4969223;28;20046;-64
2021/03/31 10:24:04;;;;;;;23.58;15.32;;;;;;;;;;4968890;28;20514;-63
2021/03/31 10:26:31;;;;;;;23.50;16.05;;;;;;;;;;4971575;28;20801;-63
2021/03/31 10:29:24;;;;;;;23.85;16.33;;;43.00;13.50;;;;;;4970086;28;20046;-64
2021/03/31 10:31:50;;;;;;;27.40;16.90;;;43.20;12.90;;;;;;4974400;28;20033;-63
2021/03/31 10:34:18;;;;;;;27.10;16.33;;;43.10;12.80;;;;;;4971185;28;20128;-63
2021/03/31 10:50:58;;;;;;;24.15;16.92;;;43.50;13.20;;;;;;4964167;28;20724;-64
2021/03/31 10:53:35;;;;;;;24.80;17.05;;;43.60;12.80;;;;;;4971574;28;20403;-64
2021/03/31 10:56:02;;;;;;;32.70;18.60;;;43.60;13.50;;;;;;4968772;28;20042;-64
2021/03/31 10:58:28;;;;;;;29.92;18.38;;;43.70;12.70;;;;;;4976725;28;20043;-64
2021/03/31 11:00:54;;;;;;;25.70;17.50;;;43.50;12.50;;;;;;4979228;28;20069;-64
2021/03/31 11:03:22;;;;;;;30.10;18.23;;;43.30;13.40;;;;;;4974287;28;20038;-64
2021/03/31 11:05:48;;;;;;;28.85;18.67;;;43.20;12.90;;;;;;4974067;28;20038;-64
2021/03/31 11:08:13;;;;;;;27.15;19.25;;;43.10;13.30;;;;;;4968649;28;20112;-64
2021/03/31 11:10:39;;;;;;;31.08;19.65;;;43.20;12.80;;;;;;4973652;28;20049;-64
2021/03/31 11:13:07;;;;;;;31.55;18.85;;;43.20;12.60;;;;;;4976142;28;20035;-65
2021/03/31 11:15:32;;;;;;;27.42;19.52;;;43.10;12.90;;;;;;4971929;28;20049;-64
2021/03/31 11:18:04;;;;;;;33.75;20.25;;;43.00;13.20;;;;;;4966516;28;20086;-64
2021/03/31 11:25:55;;;;;;;33.22;19.83;;;42.40;13.30;;;;;;4965815;28;20125;-64
2021/03/31 11:28:22;;;;;;;33.22;20.23;;;42.20;13.50;;;;;;4968081;28;20053;-64
2021/03/31 11:30:49;;;;;;;32.13;20.33;;;42.20;13.70;;;;;;4975680;28;20100;-64
2021/03/31 11:33:14;;;;;;;34.25;20.83;;;42.30;14.40;;;;;;4984706;28;20034;-64
2021/03/31 11:35:40;;;;;;;30.35;20.20;;;42.40;14.70;;;;;;4962800;28;20046;-64
2021/03/31 11:38:06;;;;;;;34.42;20.88;;;42.30;13.60;;;;;;4972553;28;20042;-64
2021/03/31 11:40:32;;;;;;;32.85;20.23;;;42.20;13.40;;;;;;4971057;28;20480;-64
2021/03/31 11:42:58;;;;;;;32.15;21.00;;;42.00;13.90;;;;;;4979197;28;20046;-63
2021/03/31 11:45:27;;;;;;;33.53;20.40;;;41.80;14.00;;;;;;4965522;28;20038;-64
2021/03/31 11:47:55;;;;;;;35.08;20.63;;;41.40;13.70;;;;;;4971924;28;20034;-64
2021/03/31 11:50:25;;;;;;;34.13;21.38;;;41.10;13.60;;;;;;4971173;28;20047;-64
2021/03/31 11:52:51;;;;;;;33.92;21.33;;;40.60;13.80;;;;;;4969906;28;20100;-64
2021/03/31 11:55:16;;;;;;;35.53;21.42;;;40.20;15.20;;;;;;4964873;28;20039;-63
2021/03/31 11:57:42;;;;;;;33.05;19.75;;;39.80;15.30;;;;;;4962558;28;20412;-64
2021/03/31 12:00:08;;;;;;;34.45;20.40;;;39.40;15.30;;;;;;4974716;28;20416;-64
2021/03/31 12:02:33;;;;;;;32.55;19.35;;;38.90;15.10;;;;;;4971049;28;20034;-63
2021/03/31 12:04:59;;;;;;;31.65;18.48;;;38.30;15.30;;;;;;4969738;28;20455;-63
2021/03/31 12:07:25;;;;;;;28.98;17.90;;;37.60;16.70;;;;;;4967432;28;20503;-63
2021/03/31 12:09:55;;;;;;;29.88;17.85;;;37.00;16.20;;;;;;4959923;28;20073;-62
2021/03/31 12:12:20;;;;;;;31.13;19.00;;;36.40;17.40;;;;;;4963562;28;21051;-62
2021/03/31 12:14:50;;;;;;;38.90;21.23;;;35.90;18.70;;;;;;4969340;28;20049;-62
2021/03/31 12:17:17;;;;;;;32.65;19.48;;;35.60;18.10;;;;;;4972046;28;20530;-63
2021/03/31 12:19:42;;;;;;;34.22;19.05;;;35.30;18.50;;;;;;4979207;28;20897;-63
2021/03/31 12:22:08;;;;;;;31.58;18.05;;;35.00;17.90;;;;;;4963148;28;20042;-63
2021/03/31 12:24:34;;;;;;;33.53;17.98;;;34.70;18.20;;;;;;4968673;28;20031;-62
2021/03/31 12:27:04;;;;;;;28.08;16.27;;;34.50;17.40;;;;;;4966511;28;20042;-63
2021/03/31 12:29:33;;;;;;;27.27;15.40;;;34.20;17.80;;;;;;4972561;28;20114;-62
2021/03/31 12:31:59;;;;;;;26.55;16.00;;;34.00;17.70;;;;;;4967185;28;20050;-64
2021/03/31 12:34:28;;;;;;;30.35;16.67;;;33.80;17.60;;;;;;4967047;28;20137;-63
2021/03/31 12:36:54;;;;;;;30.10;17.92;;;33.70;18.00;;;;;;4960523;28;20053;-63
2021/03/31 12:39:22;;;;;;;33.90;17.27;;;33.50;18.50;;;;;;4967908;28;20049;-63
2021/03/31 12:41:48;;;;;;;36.88;17.40;;;33.30;18.40;;;;;;4967358;28;20057;-63
2021/03/31 12:44:15;;;;;;;30.95;16.88;;;33.20;19.00;;;;;;4972365;28;20069;-64
2021/03/31 12:46:41;;;;;;;31.20;17.55;;;33.20;20.00;;;;;;4960129;28;20516;-64
2021/03/31 12:49:06;;;;;;;32.45;18.02;;;33.10;19.50;;;;;;4974243;28;20035;-63
2021/03/31 12:51:33;;;;;;;27.88;16.50;;;33.20;18.70;;;;;;4975344;28;20049;-63
2021/03/31 12:54:20;;;;;;;30.85;17.55;;;33.10;19.50;;;;;;4974815;28;20034;-64
2021/03/31 12:56:45;;;;;;;28.63;17.30;;;33.10;20.20;;;;;;4958952;28;20508;-63
2021/03/31 12:59:11;;;;;;;28.50;16.77;;;32.90;20.30;;;;;;4963601;28;20188;-63
2021/03/31 13:01:37;;;;;;;32.35;16.77;;;32.80;20.20;;;;;;4956892;28;20061;-63
2021/03/31 13:04:03;;;;;;;29.48;15.80;;;32.60;19.90;;;;;;4976632;28;20087;-64
2021/03/31 13:06:31;;;;;;;31.75;16.02;;;32.60;19.70;;;;;;4979212;28;20512;-64
2021/03/31 13:08:58;;;;;;;31.35;17.15;;;32.50;19.10;;;;;;4982933;28;20043;-64
2021/03/31 13:11:24;;;;;;;34.85;18.23;;;32.40;19.60;;;;;;4983026;28;20107;-63
2021/03/31 13:14:12;;;;;;;30.70;17.17;;;32.30;19.40;;;;;;4977070;28;20050;-63
2021/03/31 13:22:18;;;;;;;31.27;15.80;;;32.10;20.10;;;;;;4981216;28;20097;-63
2021/03/31 13:24:52;;;;;;;27.30;16.45;;;32.10;19.90;;;;;;4973800;28;20093;-64